createdAt,value
2023-05-08T00:00:43.639Z,36.21
2023-05-08T00:01:43.654Z,36.26
2023-05-08T00:02:43.717Z,36.22
2023-05-08T00:03:43.791Z,36.22
2023-05-08T00:04:43.797Z,36.24
2023-05-08T00:05:43.681Z,36.26
2023-05-08T00:06:43.695Z,36.22
2023-05-08T00:07:43.773Z,36.25
2023-05-08T00:08:43.675Z,36.25
2023-05-08T00:09:43.688Z,36.20
2023-05-08T00:10:43.695Z,36.26
2023-05-08T00:11:43.700Z,36.24
2023-05-08T00:12:43.751Z,36.25
2023-05-08T00:13:43.713Z,36.28
2023-05-08T00:14:43.700Z,36.25
2023-05-08T00:15:43.786Z,36.22
2023-05-08T00:16:43.810Z,36.21
2023-05-08T00:17:43.810Z,36.21
2023-05-08T00:18:43.768Z,36.27
2023-05-08T00:19:43.772Z,36.26
2023-05-08T00:20:43.792Z,36.26
2023-05-08T00:21:43.788Z,36.25
2023-05-08T00:22:43.762Z,36.21
2023-05-08T00:23:43.774Z,36.22
2023-05-08T00:24:43.771Z,36.25
2023-05-08T00:25:43.766Z,36.26
2023-05-08T00:26:43.776Z,36.25
2023-05-08T00:27:43.780Z,36.26
2023-05-08T00:28:43.809Z,36.30
2023-05-08T00:29:43.794Z,36.26
2023-05-08T00:30:43.810Z,36.30
2023-05-08T00:31:43.886Z,36.26
2023-05-08T00:32:43.891Z,36.20
2023-05-08T00:33:43.860Z,36.26
2023-05-08T00:34:43.871Z,36.27
2023-05-08T00:35:43.891Z,36.28
2023-05-08T00:36:43.914Z,36.24
2023-05-08T00:37:43.939Z,36.27
2023-05-08T00:38:43.969Z,36.24
2023-05-08T00:39:43.982Z,36.25
2023-05-08T00:40:43.999Z,36.26
2023-05-08T00:41:44.020Z,36.31
2023-05-08T00:42:44.046Z,36.26
2023-05-08T00:43:44.053Z,36.25
2023-05-08T00:44:44.064Z,36.25
2023-05-08T00:45:44.056Z,36.29
2023-05-08T00:46:44.079Z,36.27
2023-05-08T00:47:44.141Z,36.26
2023-05-08T00:48:44.086Z,36.28
2023-05-08T00:49:44.073Z,36.26
2023-05-08T00:50:44.068Z,36.28
2023-05-08T00:51:44.077Z,36.28
2023-05-08T00:52:44.092Z,36.30
2023-05-08T00:53:44.104Z,36.28
2023-05-08T00:54:44.134Z,36.27
2023-05-08T00:55:44.146Z,36.25
2023-05-08T00:56:44.179Z,36.28
2023-05-08T00:57:44.199Z,36.28
2023-05-08T00:58:44.213Z,36.32
2023-05-08T00:59:44.235Z,36.28
2023-05-08T01:00:44.247Z,36.27
2023-05-08T01:01:44.303Z,36.27
2023-05-08T01:02:44.389Z,36.27
2023-05-08T01:03:44.356Z,36.26
2023-05-08T01:04:44.310Z,36.27
2023-05-08T01:05:44.325Z,36.28
2023-05-08T01:06:44.322Z,36.31
2023-05-08T01:07:44.335Z,36.30
2023-05-08T01:08:44.340Z,36.31
2023-05-08T01:09:44.331Z,36.35
2023-05-08T01:10:44.343Z,36.28
2023-05-08T01:11:44.338Z,36.27
2023-05-08T01:12:44.354Z,36.28
2023-05-08T01:13:44.362Z,36.26
2023-05-08T01:14:44.366Z,36.32
2023-05-08T01:15:44.436Z,36.32
2023-05-08T01:16:44.389Z,36.33
2023-05-08T01:17:44.420Z,36.28
2023-05-08T01:18:44.417Z,36.32
2023-05-08T01:19:44.442Z,36.28
2023-05-08T01:20:44.453Z,36.35
2023-05-08T01:21:44.476Z,36.27
2023-05-08T01:22:44.493Z,36.31
2023-05-08T01:23:44.519Z,36.33
2023-05-08T01:24:44.524Z,36.33
2023-05-08T01:25:44.525Z,36.31
2023-05-08T01:26:44.526Z,36.29
2023-05-08T01:27:44.532Z,36.28
2023-05-08T01:28:44.548Z,36.32
2023-05-08T01:29:44.565Z,36.27
2023-05-08T01:30:44.568Z,36.28
2023-05-08T01:31:44.609Z,36.28
2023-05-08T01:32:44.649Z,36.31
2023-05-08T01:33:44.638Z,36.29
2023-05-08T01:34:44.629Z,36.32
2023-05-08T01:35:44.617Z,36.32
2023-05-08T01:36:44.635Z,36.35
2023-05-08T01:37:44.648Z,36.28
2023-05-08T01:38:44.679Z,36.31
2023-05-08T01:39:44.704Z,36.27
2023-05-08T01:40:44.705Z,36.31
2023-05-08T01:41:44.735Z,36.31
2023-05-08T01:42:44.742Z,36.33
2023-05-08T01:43:44.769Z,36.32
2023-05-08T01:44:44.792Z,36.33
2023-05-08T01:45:44.810Z,36.31
2023-05-08T01:46:44.912Z,36.32
2023-05-08T01:47:44.841Z,36.32
2023-05-08T01:48:44.822Z,36.32
2023-05-08T01:49:44.835Z,36.29
2023-05-08T01:50:44.852Z,36.31
2023-05-08T01:51:44.857Z,36.34
2023-05-08T01:52:44.878Z,36.31
2023-05-08T01:53:44.898Z,36.33
2023-05-08T01:54:44.891Z,36.33
2023-05-08T01:55:44.926Z,36.31
2023-05-08T01:56:44.893Z,36.34
2023-05-08T01:57:44.909Z,36.36
2023-05-08T01:58:44.924Z,36.34
2023-05-08T01:59:44.926Z,36.35
2023-05-08T02:00:44.948Z,36.34
2023-05-08T02:01:45.021Z,36.32
2023-05-08T02:02:45.026Z,36.33
2023-05-08T02:03:44.980Z,36.34
2023-05-08T02:04:44.952Z,36.31
2023-05-08T02:05:45.005Z,36.33
2023-05-08T02:06:45.022Z,36.33
2023-05-08T02:07:45.007Z,36.31
2023-05-08T02:08:45.027Z,36.32
2023-05-08T02:09:45.016Z,36.34
2023-05-08T02:10:45.020Z,36.29
2023-05-08T02:11:45.011Z,36.36
2023-05-08T02:12:45.055Z,36.36
2023-05-08T02:13:45.055Z,36.33
2023-05-08T02:14:45.088Z,36.33
2023-05-08T02:15:45.095Z,36.31
2023-05-08T02:16:45.162Z,36.32
2023-05-08T02:17:45.148Z,36.32
2023-05-08T02:18:45.139Z,36.33
2023-05-08T02:19:45.139Z,36.34
2023-05-08T02:20:45.114Z,36.33
2023-05-08T02:21:45.095Z,36.34
2023-05-08T02:22:45.098Z,36.34
2023-05-08T02:23:45.113Z,36.33
2023-05-08T02:24:45.116Z,36.33
2023-05-08T02:25:45.126Z,36.37
2023-05-08T02:26:45.127Z,36.32
2023-05-08T02:27:45.135Z,36.34
2023-05-08T02:28:45.134Z,36.33
2023-05-08T02:29:45.123Z,36.38
2023-05-08T02:30:45.109Z,36.33
2023-05-08T02:31:45.135Z,36.33
2023-05-08T02:32:45.120Z,36.31
2023-05-08T02:33:45.060Z,36.36
2023-05-08T02:34:54.841Z,36.32
2023-05-08T02:35:46.028Z,36.38
2023-05-08T02:36:44.987Z,36.37
2023-05-08T02:37:44.925Z,36.33
2023-05-08T02:38:44.892Z,36.32
2023-05-08T02:39:44.834Z,36.34
2023-05-08T02:40:44.788Z,36.35
2023-05-08T02:41:44.740Z,36.31
2023-05-08T02:42:44.708Z,36.33
2023-05-08T02:43:44.654Z,36.34
2023-05-08T02:44:44.623Z,36.31
2023-05-08T02:45:44.672Z,36.36
2023-05-08T02:46:44.635Z,36.32
2023-05-08T02:47:44.686Z,36.34
2023-05-08T02:48:44.652Z,36.34
2023-05-08T02:49:44.663Z,36.35
2023-05-08T02:50:44.677Z,36.31
2023-05-08T02:51:44.690Z,36.36
2023-05-08T02:52:44.703Z,36.35
2023-05-08T02:53:44.702Z,36.36
2023-05-08T02:54:44.708Z,36.38
2023-05-08T02:55:44.857Z,36.35
2023-05-08T02:56:44.744Z,36.34
2023-05-08T02:57:44.761Z,36.31
2023-05-08T02:58:44.795Z,36.36
2023-05-08T02:59:44.804Z,36.36
2023-05-08T03:00:44.807Z,36.38
2023-05-08T03:01:44.878Z,36.35
2023-05-08T03:02:44.947Z,36.35
2023-05-08T03:03:45.049Z,36.34
2023-05-08T03:04:44.909Z,36.36
2023-05-08T03:05:44.921Z,36.36
2023-05-08T03:06:44.924Z,36.36
2023-05-08T03:07:44.929Z,36.35
2023-05-08T03:08:44.971Z,36.36
2023-05-08T03:09:44.952Z,36.36
2023-05-08T03:10:44.954Z,36.33
2023-05-08T03:11:44.957Z,36.35
2023-05-08T03:12:44.961Z,36.35
2023-05-08T03:13:44.958Z,36.38
2023-05-08T03:14:44.997Z,36.39
2023-05-08T03:15:45.021Z,36.36
2023-05-08T03:16:44.998Z,36.35
2023-05-08T03:17:45.012Z,36.38
2023-05-08T03:18:44.987Z,36.36
2023-05-08T03:19:44.975Z,36.36
2023-05-08T03:20:44.963Z,36.36
2023-05-08T03:21:44.927Z,36.36
2023-05-08T03:22:44.928Z,36.35
2023-05-08T03:23:44.929Z,36.35
2023-05-08T03:24:44.909Z,36.36
2023-05-08T03:25:44.914Z,36.38
2023-05-08T03:26:44.933Z,36.36
2023-05-08T03:27:44.929Z,36.36
2023-05-08T03:28:44.923Z,36.35
2023-05-08T03:29:44.925Z,36.36
2023-05-08T03:30:44.921Z,36.39
2023-05-08T03:31:44.982Z,36.31
2023-05-08T03:32:44.904Z,36.35
2023-05-08T03:33:44.843Z,36.36
2023-05-08T03:34:44.859Z,36.33
2023-05-08T03:35:44.830Z,36.38
2023-05-08T03:36:44.838Z,36.37
2023-05-08T03:37:44.825Z,36.34
2023-05-08T03:38:44.823Z,36.37
2023-05-08T03:39:44.810Z,36.35
2023-05-08T03:40:44.802Z,36.36
2023-05-08T03:41:44.805Z,36.39
2023-05-08T03:42:44.779Z,36.39
2023-05-08T03:43:44.789Z,36.37
2023-05-08T03:44:44.787Z,36.34
2023-05-08T03:45:44.812Z,36.37
2023-05-08T03:46:44.811Z,36.40
2023-05-08T03:47:44.817Z,36.41
2023-05-08T03:48:44.775Z,36.39
2023-05-08T03:49:44.790Z,36.36
2023-05-08T03:50:44.786Z,36.37
2023-05-08T03:51:44.756Z,36.36
2023-05-08T03:52:44.773Z,36.37
2023-05-08T03:53:44.781Z,36.39
2023-05-08T03:54:44.768Z,36.39
2023-05-08T03:55:44.753Z,36.35
2023-05-08T03:56:44.752Z,36.42
2023-05-08T03:57:44.753Z,36.40
2023-05-08T03:58:44.749Z,36.37
2023-05-08T03:59:44.737Z,36.36
2023-05-08T04:00:44.748Z,36.37
2023-05-08T04:01:44.785Z,36.36
2023-05-08T04:02:44.775Z,36.37
2023-05-08T04:03:44.818Z,36.37
2023-05-08T04:04:44.741Z,36.41
2023-05-08T04:05:44.747Z,36.38
2023-05-08T04:06:49.940Z,36.34
2023-05-08T04:07:46.631Z,36.41
2023-05-08T04:08:44.603Z,36.39
2023-05-08T04:09:44.550Z,36.38
2023-05-08T04:10:44.540Z,36.38
2023-05-08T04:11:44.470Z,36.37
2023-05-08T04:12:45.151Z,36.43
2023-05-08T04:13:44.368Z,36.38
2023-05-08T04:14:44.340Z,36.38
2023-05-08T04:15:44.308Z,36.35
2023-05-08T04:16:44.321Z,36.41
2023-05-08T04:17:44.430Z,36.36
2023-05-08T04:18:44.309Z,36.37
2023-05-08T04:19:44.303Z,36.35
2023-05-08T04:20:46.117Z,36.40
2023-05-08T04:21:44.280Z,36.35
2023-05-08T04:22:44.278Z,36.41
2023-05-08T04:23:44.271Z,36.41
2023-05-08T04:24:44.298Z,36.43
2023-05-08T04:25:44.285Z,36.40
2023-05-08T04:26:44.281Z,36.35
2023-05-08T04:27:44.281Z,36.37
2023-05-08T04:28:44.302Z,36.38
2023-05-08T04:29:44.261Z,36.37
2023-05-08T04:30:44.265Z,36.37
2023-05-08T04:31:44.373Z,36.41
2023-05-08T04:32:46.209Z,36.38
2023-05-08T04:33:44.298Z,36.41
2023-05-08T04:34:44.306Z,36.36
2023-05-08T04:35:44.290Z,36.36
2023-05-08T04:36:44.283Z,36.41
2023-05-08T04:37:44.275Z,36.37
2023-05-08T04:38:44.266Z,36.40
2023-05-08T04:39:44.250Z,36.37
2023-05-08T04:40:44.238Z,36.37
2023-05-08T04:41:44.301Z,36.37
2023-05-08T04:42:44.239Z,36.39
2023-05-08T04:43:44.238Z,36.40
2023-05-08T04:44:44.333Z,36.41
2023-05-08T04:45:44.236Z,36.38
2023-05-08T04:46:44.210Z,36.40
2023-05-08T04:47:44.257Z,36.37
2023-05-08T04:48:44.175Z,36.38
2023-05-08T04:49:44.192Z,36.38
2023-05-08T04:50:44.184Z,36.38
2023-05-08T04:51:44.182Z,36.40
2023-05-08T04:52:44.180Z,36.38
2023-05-08T04:53:44.170Z,36.37
2023-05-08T04:54:44.178Z,36.36
2023-05-08T04:55:44.200Z,36.38
2023-05-08T04:56:44.187Z,36.38
2023-05-08T04:57:44.178Z,36.41
2023-05-08T04:58:44.165Z,36.33
2023-05-08T04:59:44.161Z,36.41
2023-05-08T05:00:44.134Z,36.37
2023-05-08T05:01:44.146Z,36.37
2023-05-08T05:02:44.159Z,36.38
2023-05-08T05:03:44.201Z,36.39
2023-05-08T05:04:44.136Z,36.37
2023-05-08T05:05:44.112Z,36.35
2023-05-08T05:06:44.103Z,36.37
2023-05-08T05:07:44.098Z,36.37
2023-05-08T05:08:44.084Z,36.39
2023-05-08T05:09:44.064Z,36.39
2023-05-08T05:10:44.054Z,36.41
2023-05-08T05:11:44.043Z,36.39
2023-05-08T05:12:44.065Z,36.34
2023-05-08T05:13:44.097Z,36.68
2023-05-08T05:14:43.996Z,37.59
2023-05-08T05:15:44.012Z,37.98
2023-05-08T05:16:43.996Z,38.45
2023-05-08T05:17:44.056Z,38.84
2023-05-08T05:18:44.001Z,39.30
2023-05-08T05:19:44.006Z,39.61
2023-05-08T05:20:44.052Z,39.96
2023-05-08T05:21:44.043Z,40.17
2023-05-08T05:22:44.017Z,40.34
2023-05-08T05:23:43.987Z,40.72
2023-05-08T05:24:43.978Z,40.86
2023-05-08T05:25:43.969Z,40.92
2023-05-08T05:26:44.048Z,41.35
2023-05-08T05:27:44.116Z,41.53
2023-05-08T05:28:44.201Z,42.00
2023-05-08T05:29:44.272Z,42.52
2023-05-08T05:30:44.337Z,42.69
2023-05-08T05:31:44.447Z,42.50
2023-05-08T05:32:44.367Z,42.53
2023-05-08T05:33:44.323Z,42.63
2023-05-08T05:34:44.340Z,42.55
2023-05-08T05:35:44.408Z,42.58
2023-05-08T05:36:44.451Z,42.29
2023-05-08T05:37:44.493Z,42.30
2023-05-08T05:38:44.522Z,42.25
2023-05-08T05:39:44.560Z,42.16
2023-05-08T05:40:44.558Z,42.05
2023-05-08T05:41:45.523Z,41.93
2023-05-08T05:42:44.498Z,41.93
2023-05-08T05:43:44.446Z,42.04
2023-05-08T05:44:44.407Z,42.12
2023-05-08T05:45:44.366Z,42.13
2023-05-08T05:46:44.704Z,42.28
2023-05-08T05:47:44.309Z,42.20
2023-05-08T05:48:44.247Z,42.11
2023-05-08T05:49:44.206Z,42.13
2023-05-08T05:50:44.187Z,42.05
2023-05-08T05:51:44.109Z,41.96
2023-05-08T05:52:44.086Z,41.80
2023-05-08T05:53:44.064Z,41.66
2023-05-08T05:54:44.194Z,41.65
2023-05-08T05:55:44.059Z,41.71
2023-05-08T05:56:44.051Z,41.71
2023-05-08T05:57:44.041Z,41.71
2023-05-08T05:58:44.020Z,41.63
2023-05-08T05:59:44.010Z,41.64
2023-05-08T06:00:44.002Z,41.61
2023-05-08T06:01:44.016Z,41.69
2023-05-08T06:02:44.162Z,41.75
2023-05-08T06:03:44.150Z,41.71
2023-05-08T06:04:43.937Z,41.75
2023-05-08T06:05:43.914Z,41.74
2023-05-08T06:06:43.890Z,41.66
2023-05-08T06:07:43.896Z,41.69
2023-05-08T06:08:43.877Z,41.69
2023-05-08T06:09:43.882Z,41.58
2023-05-08T06:10:43.860Z,41.63
2023-05-08T06:11:43.853Z,41.63
2023-05-08T06:12:43.934Z,41.60
2023-05-08T06:13:43.855Z,41.63
2023-05-08T06:14:43.839Z,41.65
2023-05-08T06:15:43.820Z,41.70
2023-05-08T06:16:43.822Z,41.55
2023-05-08T06:17:43.892Z,41.52
2023-05-08T06:18:43.749Z,41.41
2023-05-08T06:19:43.731Z,41.36
2023-05-08T06:20:43.785Z,41.36
2023-05-08T06:21:43.671Z,41.54
2023-05-08T06:22:43.657Z,41.70
2023-05-08T06:23:43.625Z,41.55
2023-05-08T06:24:43.585Z,41.79
2023-05-08T06:25:43.581Z,41.75
2023-05-08T06:26:43.496Z,41.57
2023-05-08T06:27:43.482Z,41.64
2023-05-08T06:28:43.485Z,41.57
2023-05-08T06:29:43.523Z,41.59
2023-05-08T06:30:43.524Z,41.56
2023-05-08T06:31:43.441Z,41.59
2023-05-08T06:32:43.473Z,41.61
2023-05-08T06:33:43.416Z,41.63
2023-05-08T06:34:43.414Z,41.63
2023-05-08T06:35:43.418Z,41.63
2023-05-08T06:36:43.406Z,41.62
2023-05-08T06:37:43.411Z,41.55
2023-05-08T06:38:43.383Z,41.53
2023-05-08T06:39:43.372Z,41.48
2023-05-08T06:40:43.354Z,41.45
2023-05-08T06:41:43.335Z,41.44
2023-05-08T06:42:43.351Z,41.34
2023-05-08T06:43:43.352Z,41.36
2023-05-08T06:44:43.359Z,41.31
2023-05-08T06:45:43.363Z,41.26
2023-05-08T06:46:43.408Z,41.23
2023-05-08T06:47:43.398Z,41.22
2023-05-08T06:48:43.411Z,41.20
2023-05-08T06:49:43.443Z,41.19
2023-05-08T06:50:43.497Z,41.15
2023-05-08T06:51:43.435Z,41.15
2023-05-08T06:52:43.506Z,41.11
2023-05-08T06:53:43.431Z,41.11
2023-05-08T06:54:43.429Z,41.11
2023-05-08T06:55:43.421Z,41.09
2023-05-08T06:56:43.392Z,41.03
2023-05-08T06:57:43.409Z,41.08
2023-05-08T06:58:46.305Z,41.03
2023-05-08T06:59:44.338Z,41.01
2023-05-08T07:00:43.292Z,41.06
2023-05-08T07:01:43.284Z,40.97
2023-05-08T07:02:43.230Z,40.95
2023-05-08T07:03:43.136Z,40.93
2023-05-08T07:04:43.143Z,40.90
2023-05-08T07:05:43.048Z,40.94
2023-05-08T07:06:42.994Z,40.91
2023-05-08T07:07:43.046Z,40.93
2023-05-08T07:08:43.249Z,40.82
2023-05-08T07:09:42.973Z,40.84
2023-05-08T07:10:42.972Z,40.98
2023-05-08T07:11:42.971Z,40.90
2023-05-08T07:12:43.001Z,40.79
2023-05-08T07:13:42.962Z,40.86
2023-05-08T07:14:42.968Z,40.86
2023-05-08T07:15:43.048Z,40.76
2023-05-08T07:16:42.983Z,40.71
2023-05-08T07:17:42.968Z,40.70
2023-05-08T07:18:42.928Z,40.80
2023-05-08T07:19:42.934Z,40.80
2023-05-08T07:20:42.915Z,41.09
2023-05-08T07:21:42.932Z,40.96
2023-05-08T07:22:42.900Z,40.89
2023-05-08T07:23:42.907Z,40.78
2023-05-08T07:24:42.930Z,40.82
2023-05-08T07:25:42.938Z,40.79
2023-05-08T07:26:42.949Z,40.81
2023-05-08T07:27:43.640Z,40.75
2023-05-08T07:28:42.979Z,40.69
2023-05-08T07:29:42.959Z,40.69
2023-05-08T07:30:42.985Z,40.68
2023-05-08T07:31:43.036Z,40.60
2023-05-08T07:32:43.033Z,40.62
2023-05-08T07:33:43.036Z,40.59
2023-05-08T07:34:43.051Z,40.60
2023-05-08T07:35:43.087Z,40.54
2023-05-08T07:36:43.062Z,40.55
2023-05-08T07:37:43.072Z,40.55
2023-05-08T07:38:43.083Z,40.57
2023-05-08T07:39:43.104Z,40.56
2023-05-08T07:40:43.145Z,40.55
2023-05-08T07:41:43.273Z,40.48
2023-05-08T07:42:43.161Z,40.47
2023-05-08T07:43:43.171Z,40.44
2023-05-08T07:44:53.545Z,40.42
2023-05-08T07:45:44.148Z,40.47
2023-05-08T07:46:43.094Z,40.43
2023-05-08T07:47:43.058Z,40.42
2023-05-08T07:48:42.979Z,40.42
2023-05-08T07:49:42.933Z,40.39
2023-05-08T07:50:42.876Z,40.36
2023-05-08T07:51:42.846Z,40.34
2023-05-08T07:52:42.794Z,40.34
2023-05-08T07:53:42.716Z,40.29
2023-05-08T07:54:42.766Z,40.32
2023-05-08T07:55:42.723Z,40.31
2023-05-08T07:56:42.808Z,40.30
2023-05-08T07:57:42.762Z,40.27
2023-05-08T07:58:42.784Z,40.25
2023-05-08T07:59:42.782Z,40.21
2023-05-08T08:00:42.852Z,40.24
2023-05-08T08:01:42.833Z,40.23
2023-05-08T08:02:42.979Z,40.22
2023-05-08T08:03:42.999Z,40.20
2023-05-08T08:04:42.832Z,40.20
2023-05-08T08:05:42.851Z,40.18
2023-05-08T08:06:42.840Z,40.15
2023-05-08T08:07:42.864Z,40.10
2023-05-08T08:08:42.869Z,40.15
2023-05-08T08:09:42.887Z,40.13
2023-05-08T08:10:42.891Z,40.08
2023-05-08T08:11:42.897Z,40.12
2023-05-08T08:12:43.030Z,40.62
2023-05-08T08:13:42.927Z,40.34
2023-05-08T08:14:42.936Z,40.25
2023-05-08T08:15:42.940Z,40.27
2023-05-08T08:16:42.998Z,40.22
2023-05-08T08:17:42.944Z,40.45
2023-05-08T08:18:42.940Z,40.51
2023-05-08T08:19:42.920Z,40.44
2023-05-08T08:20:42.921Z,40.44
2023-05-08T08:21:42.920Z,40.53
2023-05-08T08:22:42.912Z,40.63
2023-05-08T08:23:43.744Z,40.47
2023-05-08T08:24:42.870Z,40.52
2023-05-08T08:25:42.867Z,40.69
2023-05-08T08:26:42.843Z,40.58
2023-05-08T08:27:42.820Z,40.51
2023-05-08T08:28:42.906Z,40.50
2023-05-08T08:29:42.823Z,40.52
2023-05-08T08:30:43.763Z,40.55
2023-05-08T08:31:42.890Z,40.61
2023-05-08T08:32:42.645Z,40.56
2023-05-08T08:33:42.601Z,40.55
2023-05-08T08:34:42.498Z,40.65
2023-05-08T08:35:42.438Z,40.52
2023-05-08T08:36:42.386Z,40.58
2023-05-08T08:37:42.319Z,40.55
2023-05-08T08:38:42.268Z,40.54
2023-05-08T08:39:42.200Z,40.57
2023-05-08T08:40:42.153Z,40.56
2023-05-08T08:41:42.096Z,40.55
2023-05-08T08:42:42.082Z,40.62
2023-05-08T08:43:42.004Z,40.55
2023-05-08T08:44:42.119Z,40.59
2023-05-08T08:45:42.031Z,40.57
2023-05-08T08:46:42.024Z,40.57
2023-05-08T08:47:42.035Z,40.55
2023-05-08T08:48:42.009Z,40.59
2023-05-08T08:49:42.004Z,40.58
2023-05-08T08:50:42.011Z,40.59
2023-05-08T08:51:42.005Z,40.55
2023-05-08T08:52:42.006Z,40.58
2023-05-08T08:53:42.006Z,40.57
2023-05-08T08:54:42.011Z,40.57
2023-05-08T08:55:42.004Z,40.57
2023-05-08T08:56:42.016Z,40.52
2023-05-08T08:57:42.007Z,40.54
2023-05-08T08:58:42.017Z,40.49
2023-05-08T08:59:42.016Z,40.51
2023-05-08T09:00:42.130Z,40.53
2023-05-08T09:01:42.068Z,40.50
2023-05-08T09:02:42.085Z,40.51
2023-05-08T09:03:42.174Z,40.47
2023-05-08T09:04:42.647Z,40.48
2023-05-08T09:05:42.041Z,40.46
2023-05-08T09:06:42.043Z,40.45
2023-05-08T09:07:42.024Z,40.45
2023-05-08T09:08:42.048Z,40.44
2023-05-08T09:09:42.032Z,40.44
2023-05-08T09:10:42.051Z,40.41
2023-05-08T09:11:42.057Z,40.39
2023-05-08T09:12:42.066Z,40.43
2023-05-08T09:13:42.060Z,40.41
2023-05-08T09:14:42.061Z,40.35
2023-05-08T09:15:42.091Z,40.29
2023-05-08T09:16:42.196Z,39.93
2023-05-08T09:17:42.109Z,40.01
2023-05-08T09:18:42.051Z,40.27
2023-05-08T09:19:42.050Z,40.54
2023-05-08T09:20:42.017Z,40.53
2023-05-08T09:21:42.016Z,40.64
2023-05-08T09:22:42.003Z,40.47
2023-05-08T09:23:41.982Z,40.63
2023-05-08T09:24:41.976Z,40.51
2023-05-08T09:25:43.703Z,40.57
2023-05-08T09:26:41.998Z,40.90
2023-05-08T09:27:43.154Z,41.05
2023-05-08T09:28:42.007Z,41.16
2023-05-08T09:29:41.989Z,41.21
2023-05-08T09:30:41.975Z,41.38
2023-05-08T09:31:41.997Z,41.39
2023-05-08T09:32:42.049Z,41.56
2023-05-08T09:33:41.868Z,41.72
2023-05-08T09:34:41.820Z,42.00
2023-05-08T09:35:41.783Z,42.18
2023-05-08T09:36:42.293Z,42.42
2023-05-08T09:37:41.711Z,42.52
2023-05-08T09:38:41.612Z,42.73
2023-05-08T09:39:41.570Z,42.88
2023-05-08T09:40:41.531Z,43.03
2023-05-08T09:41:41.514Z,43.09
2023-05-08T09:42:41.500Z,43.19
2023-05-08T09:43:42.248Z,43.41
2023-05-08T09:44:41.480Z,43.46
2023-05-08T09:45:41.522Z,43.63
2023-05-08T09:46:41.465Z,43.80
2023-05-08T09:47:41.460Z,43.84
2023-05-08T09:48:41.437Z,43.95
2023-05-08T09:49:42.242Z,44.21
2023-05-08T09:50:43.027Z,44.35
2023-05-08T09:51:41.376Z,44.47
2023-05-08T09:52:41.347Z,44.64
2023-05-08T09:53:41.318Z,44.81
2023-05-08T09:54:41.281Z,44.96
2023-05-08T09:55:41.250Z,45.01
2023-05-08T09:56:41.228Z,45.09
2023-05-08T09:57:41.188Z,45.25
2023-05-08T09:58:41.143Z,45.41
2023-05-08T09:59:41.093Z,45.43
2023-05-08T10:00:41.049Z,45.61
2023-05-08T10:01:41.096Z,45.64
2023-05-08T10:02:41.030Z,45.65
2023-05-08T10:03:40.920Z,45.87
2023-05-08T10:04:40.988Z,45.90
2023-05-08T10:05:40.835Z,46.03
2023-05-08T10:06:40.771Z,46.19
2023-05-08T10:07:40.721Z,46.22
2023-05-08T10:08:40.688Z,46.34
2023-05-08T10:09:50.423Z,46.51
2023-05-08T10:10:41.514Z,46.69
2023-05-08T10:11:40.429Z,46.60
2023-05-08T10:12:40.388Z,46.88
2023-05-08T10:13:40.275Z,46.62
2023-05-08T10:14:40.164Z,46.61
2023-05-08T10:15:40.099Z,46.37
2023-05-08T10:16:40.044Z,46.28
2023-05-08T10:17:39.959Z,46.08
2023-05-08T10:18:39.828Z,45.98
2023-05-08T10:19:39.767Z,45.88
2023-05-08T10:20:39.788Z,45.72
2023-05-08T10:21:39.623Z,45.64
2023-05-08T10:22:39.525Z,45.52
2023-05-08T10:23:39.448Z,45.45
2023-05-08T10:24:39.449Z,45.33
2023-05-08T10:25:39.432Z,45.27
2023-05-08T10:26:40.881Z,45.19
2023-05-08T10:27:39.346Z,45.12
2023-05-08T10:28:39.277Z,45.06
2023-05-08T10:29:39.202Z,45.01
2023-05-08T10:30:39.144Z,44.92
2023-05-08T10:31:39.169Z,44.88
2023-05-08T10:32:39.045Z,44.96
2023-05-08T10:33:38.916Z,44.86
2023-05-08T10:34:38.861Z,44.83
2023-05-08T10:35:38.765Z,44.85
2023-05-08T10:36:38.699Z,44.87
2023-05-08T10:37:38.634Z,44.84
2023-05-08T10:38:38.571Z,44.80
2023-05-08T10:39:38.506Z,44.81
2023-05-08T10:40:38.447Z,44.78
2023-05-08T10:41:38.390Z,44.76
2023-05-08T10:42:38.316Z,44.80
2023-05-08T10:43:38.224Z,44.73
2023-05-08T10:44:38.158Z,44.70
2023-05-08T10:45:38.126Z,44.73
2023-05-08T10:46:38.055Z,44.70
2023-05-08T10:47:38.003Z,44.71
2023-05-08T10:48:37.897Z,44.69
2023-05-08T10:49:37.826Z,44.63
2023-05-08T10:50:37.773Z,44.67
2023-05-08T10:51:37.686Z,44.68
2023-05-08T10:52:37.611Z,44.60
2023-05-08T10:53:37.539Z,44.61
2023-05-08T10:54:37.482Z,44.58
2023-05-08T10:55:37.414Z,44.58
2023-05-08T10:56:37.344Z,44.55
2023-05-08T10:57:37.288Z,44.54
2023-05-08T10:58:37.260Z,44.53
2023-05-08T10:59:37.178Z,44.50
2023-05-08T11:00:37.093Z,44.51
2023-05-08T11:01:37.063Z,44.57
2023-05-08T11:02:37.181Z,44.50
2023-05-08T11:03:36.945Z,44.44
2023-05-08T11:04:36.881Z,44.50
2023-05-08T11:05:36.775Z,44.40
2023-05-08T11:06:36.717Z,44.44
2023-05-08T11:07:36.688Z,44.43
2023-05-08T11:08:36.596Z,44.37
2023-05-08T11:09:36.530Z,44.43
2023-05-08T11:10:36.468Z,44.44
2023-05-08T11:11:36.410Z,44.35
2023-05-08T11:12:36.338Z,44.34
2023-05-08T11:13:36.287Z,44.36
2023-05-08T11:14:36.247Z,44.37
2023-05-08T11:15:36.141Z,44.32
2023-05-08T11:16:36.101Z,44.27
2023-05-08T11:17:36.065Z,44.30
2023-05-08T11:18:48.353Z,44.29
2023-05-08T11:19:36.984Z,44.29
2023-05-08T11:20:35.832Z,44.22
2023-05-08T11:21:35.755Z,44.21
2023-05-08T11:22:35.718Z,44.18
2023-05-08T11:23:35.642Z,44.21
2023-05-08T11:24:35.549Z,44.19
2023-05-08T11:25:35.480Z,44.20
2023-05-08T11:26:35.414Z,44.18
2023-05-08T11:27:35.356Z,44.15
2023-05-08T11:28:35.285Z,44.13
2023-05-08T11:29:35.217Z,44.09
2023-05-08T11:30:35.169Z,44.11
2023-05-08T11:31:35.130Z,44.09
2023-05-08T11:32:35.033Z,44.09
2023-05-08T11:33:34.928Z,44.08
2023-05-08T11:34:34.905Z,44.09
2023-05-08T11:35:34.789Z,44.05
2023-05-08T11:36:34.728Z,43.98
2023-05-08T11:37:34.666Z,44.03
2023-05-08T11:38:34.601Z,44.01
2023-05-08T11:39:34.529Z,44.00
2023-05-08T11:40:34.463Z,43.98
2023-05-08T11:41:34.394Z,44.01
2023-05-08T11:42:34.323Z,43.96
2023-05-08T11:43:34.310Z,43.93
2023-05-08T11:44:34.199Z,43.90
2023-05-08T11:45:34.164Z,43.93
2023-05-08T11:46:34.126Z,43.93
2023-05-08T11:47:34.019Z,43.85
2023-05-08T11:48:33.983Z,43.85
2023-05-08T11:49:33.940Z,43.86
2023-05-08T11:50:33.893Z,43.84
2023-05-08T11:51:33.834Z,43.81
2023-05-08T11:52:33.777Z,43.79
2023-05-08T11:53:33.754Z,43.80
2023-05-08T11:54:33.734Z,43.80
2023-05-08T11:55:33.651Z,43.78
2023-05-08T11:56:33.554Z,43.76
2023-05-08T11:57:33.530Z,43.72
2023-05-08T11:58:33.495Z,43.70
2023-05-08T11:59:33.453Z,43.70
2023-05-08T12:00:33.427Z,43.72
2023-05-08T12:01:33.344Z,43.66
2023-05-08T12:02:34.022Z,43.70
2023-05-08T12:03:33.433Z,43.68
2023-05-08T12:04:33.226Z,43.63
2023-05-08T12:05:33.145Z,43.65
2023-05-08T12:06:33.097Z,43.60
2023-05-08T12:07:33.050Z,43.60
2023-05-08T12:08:33.002Z,43.60
2023-05-08T12:09:32.959Z,43.76
2023-05-08T12:10:32.916Z,43.70
2023-05-08T12:11:32.862Z,43.63
2023-05-08T12:12:32.808Z,43.65
2023-05-08T12:13:32.875Z,43.60
2023-05-08T12:14:32.725Z,43.66
2023-05-08T12:15:32.734Z,43.60
2023-05-08T12:16:32.659Z,43.61
2023-05-08T12:17:32.619Z,43.57
2023-05-08T12:18:32.544Z,43.56
2023-05-08T12:19:32.495Z,43.52
2023-05-08T12:20:33.879Z,43.55
2023-05-08T12:21:32.409Z,43.54
2023-05-08T12:22:32.360Z,43.49
2023-05-08T12:23:32.302Z,43.54
2023-05-08T12:24:32.250Z,43.47
2023-05-08T12:25:32.200Z,43.47
2023-05-08T12:26:32.156Z,43.49
2023-05-08T12:27:32.129Z,43.40
2023-05-08T12:28:32.193Z,43.45
2023-05-08T12:29:32.032Z,43.41
2023-05-08T12:30:32.019Z,43.39
2023-05-08T12:31:31.972Z,43.42
2023-05-08T12:32:31.944Z,43.40
2023-05-08T12:33:31.864Z,43.38
2023-05-08T12:34:31.806Z,43.40
2023-05-08T12:35:31.753Z,43.38
2023-05-08T12:36:31.696Z,43.36
2023-05-08T12:37:31.677Z,43.34
2023-05-08T12:38:31.610Z,43.28
2023-05-08T12:39:31.571Z,43.34
2023-05-08T12:40:31.529Z,43.31
2023-05-08T12:41:31.480Z,43.24
2023-05-08T12:42:31.452Z,43.26
2023-05-08T12:43:31.393Z,43.24
2023-05-08T12:44:31.430Z,43.18
2023-05-08T12:45:31.317Z,43.20
2023-05-08T12:46:31.293Z,43.22
2023-05-08T12:47:31.293Z,43.20
2023-05-08T12:48:31.200Z,43.13
2023-05-08T12:49:31.153Z,43.16
2023-05-08T12:50:31.099Z,43.61
2023-05-08T12:51:31.074Z,43.46
2023-05-08T12:52:31.028Z,43.37